sensor_id;sensor_type;location;lat;lon;timestamp;P1;durP1;ratioP1;P2;durP2;ratioP2
42168;SDS011;27838;43.858;25.974;2023-02-11T00:00:39;36.05;;;18.40;;
42168;SDS011;27838;43.858;25.974;2023-02-11T00:03:06;37.50;;;19.80;;
42168;SDS011;27838;43.858;25.974;2023-02-11T00:05:33;36.38;;;18.20;;
42168;SDS011;27838;43.858;25.974;2023-02-11T00:08:00;34.20;;;17.88;;
42168;SDS011;27838;43.858;25.974;2023-02-11T00:10:26;39.75;;;18.73;;
42168;SDS011;27838;43.858;25.974;2023-02-11T00:12:53;40.42;;;20.42;;
42168;SDS011;27838;43.858;25.974;2023-02-11T00:15:19;45.08;;;21.33;;
42168;SDS011;27838;43.858;25.974;2023-02-11T00:17:46;41.50;;;21.05;;
42168;SDS011;27838;43.858;25.974;2023-02-11T00:20:13;37.22;;;20.77;;
42168;SDS011;27838;43.858;25.974;2023-02-11T00:22:39;37.83;;;19.13;;
42168;SDS011;27838;43.858;25.974;2023-02-11T00:25:06;37.22;;;19.17;;
42168;SDS011;27838;43.858;25.974;2023-02-11T00:27:32;41.17;;;19.45;;
42168;SDS011;27838;43.858;25.974;2023-02-11T00:29:59;41.42;;;19.70;;
42168;SDS011;27838;43.858;25.974;2023-02-11T00:32:26;36.53;;;18.90;;
42168;SDS011;27838;43.858;25.974;2023-02-11T00:34:53;33.35;;;17.30;;
42168;SDS011;27838;43.858;25.974;2023-02-11T00:37:20;35.33;;;17.65;;
42168;SDS011;27838;43.858;25.974;2023-02-11T00:39:47;43.58;;;18.65;;
42168;SDS011;27838;43.858;25.974;2023-02-11T00:42:14;32.25;;;16.35;;
42168;SDS011;27838;43.858;25.974;2023-02-11T00:44:41;34.70;;;18.42;;
42168;SDS011;27838;43.858;25.974;2023-02-11T00:47:07;34.00;;;18.50;;
42168;SDS011;27838;43.858;25.974;2023-02-11T00:49:34;32.15;;;16.88;;
42168;SDS011;27838;43.858;25.974;2023-02-11T00:52:00;30.70;;;18.02;;
42168;SDS011;27838;43.858;25.974;2023-02-11T00:54:27;33.67;;;17.40;;
42168;SDS011;27838;43.858;25.974;2023-02-11T00:56:53;33.47;;;17.30;;
42168;SDS011;27838;43.858;25.974;2023-02-11T00:59:20;31.00;;;16.80;;
42168;SDS011;27838;43.858;25.974;2023-02-11T01:01:48;31.58;;;17.17;;
42168;SDS011;27838;43.858;25.974;2023-02-11T01:04:14;30.50;;;16.52;;
42168;SDS011;27838;43.858;25.974;2023-02-11T01:06:41;36.40;;;17.00;;
42168;SDS011;27838;43.858;25.974;2023-02-11T01:09:07;34.17;;;18.48;;
42168;SDS011;27838;43.858;25.974;2023-02-11T01:11:34;32.15;;;17.05;;
42168;SDS011;27838;43.858;25.974;2023-02-11T01:14:01;35.20;;;17.73;;
42168;SDS011;27838;43.858;25.974;2023-02-11T01:16:27;37.10;;;17.48;;
42168;SDS011;27838;43.858;25.974;2023-02-11T01:18:54;34.13;;;17.20;;
42168;SDS011;27838;43.858;25.974;2023-02-11T01:21:22;33.05;;;17.33;;
42168;SDS011;27838;43.858;25.974;2023-02-11T01:23:49;33.58;;;16.67;;
42168;SDS011;27838;43.858;25.974;2023-02-11T01:26:15;34.45;;;18.02;;
42168;SDS011;27838;43.858;25.974;2023-02-11T01:28:42;32.63;;;17.58;;
42168;SDS011;27838;43.858;25.974;2023-02-11T01:31:09;37.65;;;17.85;;
42168;SDS011;27838;43.858;25.974;2023-02-11T01:33:36;33.92;;;17.02;;
42168;SDS011;27838;43.858;25.974;2023-02-11T01:36:03;31.13;;;16.80;;
42168;SDS011;27838;43.858;25.974;2023-02-11T01:38:30;33.95;;;17.23;;
42168;SDS011;27838;43.858;25.974;2023-02-11T01:41:02;39.13;;;16.85;;
42168;SDS011;27838;43.858;25.974;2023-02-11T01:43:35;34.22;;;16.55;;
42168;SDS011;27838;43.858;25.974;2023-02-11T01:48:43;31.25;;;16.63;;
42168;SDS011;27838;43.858;25.974;2023-02-11T01:51:16;30.65;;;17.20;;
42168;SDS011;27838;43.858;25.974;2023-02-11T01:53:46;31.52;;;17.10;;
42168;SDS011;27838;43.858;25.974;2023-02-11T01:56:31;32.58;;;17.67;;
42168;SDS011;27838;43.858;25.974;2023-02-11T01:59:22;36.03;;;17.83;;
42168;SDS011;27838;43.858;25.974;2023-02-11T02:01:56;32.75;;;17.25;;
42168;SDS011;27838;43.858;25.974;2023-02-11T02:04:26;29.70;;;16.98;;
42168;SDS011;27838;43.858;25.974;2023-02-11T02:07:00;33.87;;;18.83;;
42168;SDS011;27838;43.858;25.974;2023-02-11T02:09:32;30.90;;;17.58;;
42168;SDS011;27838;43.858;25.974;2023-02-11T02:12:05;34.80;;;18.67;;
42168;SDS011;27838;43.858;25.974;2023-02-11T02:14:31;36.28;;;18.38;;
42168;SDS011;27838;43.858;25.974;2023-02-11T02:16:58;37.13;;;18.58;;
42168;SDS011;27838;43.858;25.974;2023-02-11T02:19:46;40.72;;;20.50;;
42168;SDS011;27838;43.858;25.974;2023-02-11T02:29:34;39.65;;;19.67;;
42168;SDS011;27838;43.858;25.974;2023-02-11T02:34:23;34.67;;;18.92;;
42168;SDS011;27838;43.858;25.974;2023-02-11T02:39:37;37.40;;;17.77;;
42168;SDS011;27838;43.858;25.974;2023-02-11T02:42:04;34.53;;;17.40;;
42168;SDS011;27838;43.858;25.974;2023-02-11T02:44:32;37.72;;;18.58;;
42168;SDS011;27838;43.858;25.974;2023-02-11T02:46:59;35.08;;;17.55;;
42168;SDS011;27838;43.858;25.974;2023-02-11T02:49:25;35.83;;;18.20;;
42168;SDS011;27838;43.858;25.974;2023-02-11T02:57:32;33.05;;;17.20;;
42168;SDS011;27838;43.858;25.974;2023-02-11T03:08:35;31.05;;;16.95;;
42168;SDS011;27838;43.858;25.974;2023-02-11T03:11:08;39.47;;;17.67;;
42168;SDS011;27838;43.858;25.974;2023-02-11T03:13:36;32.75;;;16.17;;
42168;SDS011;27838;43.858;25.974;2023-02-11T03:16:09;31.33;;;16.70;;
42168;SDS011;27838;43.858;25.974;2023-02-11T03:18:41;30.85;;;16.50;;
42168;SDS011;27838;43.858;25.974;2023-02-11T03:21:12;32.78;;;17.55;;
42168;SDS011;27838;43.858;25.974;2023-02-11T03:23:55;29.73;;;16.40;;
42168;SDS011;27838;43.858;25.974;2023-02-11T03:26:37;33.00;;;16.92;;
42168;SDS011;27838;43.858;25.974;2023-02-11T03:35:04;28.98;;;16.50;;
42168;SDS011;27838;43.858;25.974;2023-02-11T03:37:39;31.00;;;16.40;;
42168;SDS011;27838;43.858;25.974;2023-02-11T03:40:16;32.20;;;16.50;;
42168;SDS011;27838;43.858;25.974;2023-02-11T03:45:20;32.38;;;16.35;;
42168;SDS011;27838;43.858;25.974;2023-02-11T03:47:50;31.27;;;15.88;;
42168;SDS011;27838;43.858;25.974;2023-02-11T03:50:24;35.80;;;17.08;;
42168;SDS011;27838;43.858;25.974;2023-02-11T03:52:53;35.05;;;16.45;;
42168;SDS011;27838;43.858;25.974;2023-02-11T03:55:21;33.40;;;16.23;;
42168;SDS011;27838;43.858;25.974;2023-02-11T03:57:49;36.20;;;17.10;;
42168;SDS011;27838;43.858;25.974;2023-02-11T04:00:17;31.15;;;15.63;;
42168;SDS011;27838;43.858;25.974;2023-02-11T04:02:43;33.45;;;17.38;;
42168;SDS011;27838;43.858;25.974;2023-02-11T04:05:12;31.27;;;17.17;;
42168;SDS011;27838;43.858;25.974;2023-02-11T04:07:40;31.10;;;16.27;;
42168;SDS011;27838;43.858;25.974;2023-02-11T04:10:07;33.05;;;15.90;;
42168;SDS011;27838;43.858;25.974;2023-02-11T04:12:34;31.35;;;17.15;;
42168;SDS011;27838;43.858;25.974;2023-02-11T04:15:00;33.53;;;16.45;;
42168;SDS011;27838;43.858;25.974;2023-02-11T04:17:27;34.75;;;17.33;;
42168;SDS011;27838;43.858;25.974;2023-02-11T04:19:53;33.70;;;16.63;;
42168;SDS011;27838;43.858;25.974;2023-02-11T04:22:20;34.63;;;17.05;;
42168;SDS011;27838;43.858;25.974;2023-02-11T04:24:46;32.67;;;16.13;;
42168;SDS011;27838;43.858;25.974;2023-02-11T04:27:13;30.70;;;17.48;;
42168;SDS011;27838;43.858;25.974;2023-02-11T04:29:39;32.28;;;17.23;;
42168;SDS011;27838;43.858;25.974;2023-02-11T04:32:06;35.15;;;16.90;;
42168;SDS011;27838;43.858;25.974;2023-02-11T04:34:32;30.10;;;16.73;;
42168;SDS011;27838;43.858;25.974;2023-02-11T04:36:59;34.10;;;17.05;;
42168;SDS011;27838;43.858;25.974;2023-02-11T04:39:25;33.95;;;17.55;;
42168;SDS011;27838;43.858;25.974;2023-02-11T04:41:52;31.45;;;17.23;;
42168;SDS011;27838;43.858;25.974;2023-02-11T04:44:18;34.13;;;18.00;;
42168;SDS011;27838;43.858;25.974;2023-02-11T04:46:45;29.40;;;16.35;;
42168;SDS011;27838;43.858;25.974;2023-02-11T04:49:15;32.70;;;16.83;;
42168;SDS011;27838;43.858;25.974;2023-02-11T04:51:42;30.88;;;16.70;;
42168;SDS011;27838;43.858;25.974;2023-02-11T04:54:10;35.65;;;17.85;;
42168;SDS011;27838;43.858;25.974;2023-02-11T04:56:37;32.00;;;17.30;;
42168;SDS011;27838;43.858;25.974;2023-02-11T04:59:04;37.08;;;18.52;;
42168;SDS011;27838;43.858;25.974;2023-02-11T05:01:31;39.92;;;19.38;;
42168;SDS011;27838;43.858;25.974;2023-02-11T05:03:58;34.70;;;17.98;;
42168;SDS011;27838;43.858;25.974;2023-02-11T05:06:24;42.35;;;20.98;;
42168;SDS011;27838;43.858;25.974;2023-02-11T05:08:51;38.10;;;20.20;;
42168;SDS011;27838;43.858;25.974;2023-02-11T05:11:19;38.95;;;22.20;;
42168;SDS011;27838;43.858;25.974;2023-02-11T05:13:47;39.63;;;21.95;;
42168;SDS011;27838;43.858;25.974;2023-02-11T05:16:14;40.33;;;20.45;;
42168;SDS011;27838;43.858;25.974;2023-02-11T05:18:42;39.25;;;20.48;;
42168;SDS011;27838;43.858;25.974;2023-02-11T05:21:10;40.08;;;19.98;;
42168;SDS011;27838;43.858;25.974;2023-02-11T05:23:40;42.45;;;20.25;;
42168;SDS011;27838;43.858;25.974;2023-02-11T05:26:07;44.90;;;21.92;;
42168;SDS011;27838;43.858;25.974;2023-02-11T05:28:34;44.97;;;20.83;;
42168;SDS011;27838;43.858;25.974;2023-02-11T05:31:00;54.17;;;22.67;;
42168;SDS011;27838;43.858;25.974;2023-02-11T05:33:27;42.95;;;20.75;;
42168;SDS011;27838;43.858;25.974;2023-02-11T05:36:00;39.58;;;20.27;;
42168;SDS011;27838;43.858;25.974;2023-02-11T05:38:28;42.38;;;21.27;;
42168;SDS011;27838;43.858;25.974;2023-02-11T05:40:56;44.88;;;22.65;;
42168;SDS011;27838;43.858;25.974;2023-02-11T05:43:23;40.63;;;20.58;;
42168;SDS011;27838;43.858;25.974;2023-02-11T05:45:49;43.60;;;20.70;;
42168;SDS011;27838;43.858;25.974;2023-02-11T05:48:16;46.42;;;20.33;;
42168;SDS011;27838;43.858;25.974;2023-02-11T05:50:43;41.80;;;20.88;;
42168;SDS011;27838;43.858;25.974;2023-02-11T05:53:10;42.60;;;21.92;;
42168;SDS011;27838;43.858;25.974;2023-02-11T05:55:37;52.10;;;23.73;;
42168;SDS011;27838;43.858;25.974;2023-02-11T05:58:03;41.55;;;23.02;;
42168;SDS011;27838;43.858;25.974;2023-02-11T06:00:31;39.95;;;21.75;;
42168;SDS011;27838;43.858;25.974;2023-02-11T06:02:58;39.40;;;22.13;;
42168;SDS011;27838;43.858;25.974;2023-02-11T06:05:25;37.83;;;21.33;;
42168;SDS011;27838;43.858;25.974;2023-02-11T06:07:52;42.58;;;20.55;;
42168;SDS011;27838;43.858;25.974;2023-02-11T06:10:18;36.45;;;19.83;;
42168;SDS011;27838;43.858;25.974;2023-02-11T06:12:45;38.25;;;20.10;;
42168;SDS011;27838;43.858;25.974;2023-02-11T06:15:11;40.67;;;20.65;;
42168;SDS011;27838;43.858;25.974;2023-02-11T06:17:38;37.38;;;18.63;;
42168;SDS011;27838;43.858;25.974;2023-02-11T06:20:05;41.78;;;20.27;;
42168;SDS011;27838;43.858;25.974;2023-02-11T06:22:34;36.72;;;19.38;;
42168;SDS011;27838;43.858;25.974;2023-02-11T06:25:01;35.25;;;19.90;;
42168;SDS011;27838;43.858;25.974;2023-02-11T06:27:27;33.00;;;20.67;;
42168;SDS011;27838;43.858;25.974;2023-02-11T06:29:55;46.47;;;22.15;;
42168;SDS011;27838;43.858;25.974;2023-02-11T06:32:21;46.95;;;23.98;;
42168;SDS011;27838;43.858;25.974;2023-02-11T06:34:48;46.92;;;23.98;;
42168;SDS011;27838;43.858;25.974;2023-02-11T06:37:14;43.33;;;22.85;;
42168;SDS011;27838;43.858;25.974;2023-02-11T06:39:42;45.63;;;24.10;;
42168;SDS011;27838;43.858;25.974;2023-02-11T06:42:09;45.67;;;23.70;;
42168;SDS011;27838;43.858;25.974;2023-02-11T06:44:36;45.00;;;23.88;;
42168;SDS011;27838;43.858;25.974;2023-02-11T06:47:02;42.17;;;21.63;;
42168;SDS011;27838;43.858;25.974;2023-02-11T06:49:29;49.92;;;24.75;;
42168;SDS011;27838;43.858;25.974;2023-02-11T06:51:56;43.33;;;23.08;;
42168;SDS011;27838;43.858;25.974;2023-02-11T06:54:22;49.63;;;24.60;;
42168;SDS011;27838;43.858;25.974;2023-02-11T06:56:49;49.25;;;23.15;;
42168;SDS011;27838;43.858;25.974;2023-02-11T06:59:16;47.38;;;23.23;;
42168;SDS011;27838;43.858;25.974;2023-02-11T07:01:44;38.35;;;19.15;;
42168;SDS011;27838;43.858;25.974;2023-02-11T07:04:11;34.30;;;19.23;;
42168;SDS011;27838;43.858;25.974;2023-02-11T07:06:39;34.95;;;19.50;;
42168;SDS011;27838;43.858;25.974;2023-02-11T07:09:06;32.05;;;18.77;;
42168;SDS011;27838;43.858;25.974;2023-02-11T07:11:33;34.83;;;19.25;;
42168;SDS011;27838;43.858;25.974;2023-02-11T07:14:01;38.83;;;19.15;;
42168;SDS011;27838;43.858;25.974;2023-02-11T07:16:30;41.40;;;18.70;;
42168;SDS011;27838;43.858;25.974;2023-02-11T07:18:57;32.67;;;17.23;;
42168;SDS011;27838;43.858;25.974;2023-02-11T07:21:24;34.33;;;19.33;;
42168;SDS011;27838;43.858;25.974;2023-02-11T07:23:50;38.75;;;18.20;;
42168;SDS011;27838;43.858;25.974;2023-02-11T07:26:18;38.30;;;20.15;;
42168;SDS011;27838;43.858;25.974;2023-02-11T07:28:47;39.25;;;20.25;;
42168;SDS011;27838;43.858;25.974;2023-02-11T07:31:18;43.55;;;18.77;;
42168;SDS011;27838;43.858;25.974;2023-02-11T07:33:47;42.55;;;20.30;;
42168;SDS011;27838;43.858;25.974;2023-02-11T07:36:14;36.33;;;18.42;;
42168;SDS011;27838;43.858;25.974;2023-02-11T07:38:41;35.08;;;18.25;;
42168;SDS011;27838;43.858;25.974;2023-02-11T07:41:12;35.10;;;18.92;;
42168;SDS011;27838;43.858;25.974;2023-02-11T07:43:44;37.33;;;18.67;;
42168;SDS011;27838;43.858;25.974;2023-02-11T07:46:13;35.75;;;19.13;;
42168;SDS011;27838;43.858;25.974;2023-02-11T07:48:41;39.67;;;19.85;;
42168;SDS011;27838;43.858;25.974;2023-02-11T07:53:36;41.00;;;20.08;;
42168;SDS011;27838;43.858;25.974;2023-02-11T07:56:03;45.25;;;20.25;;
42168;SDS011;27838;43.858;25.974;2023-02-11T07:58:31;35.25;;;19.40;;
42168;SDS011;27838;43.858;25.974;2023-02-11T08:01:05;32.72;;;18.60;;
42168;SDS011;27838;43.858;25.974;2023-02-11T08:03:34;35.40;;;18.40;;
42168;SDS011;27838;43.858;25.974;2023-02-11T08:06:05;33.90;;;18.73;;
42168;SDS011;27838;43.858;25.974;2023-02-11T08:08:40;35.58;;;18.48;;
42168;SDS011;27838;43.858;25.974;2023-02-11T08:11:08;33.13;;;17.90;;
42168;SDS011;27838;43.858;25.974;2023-02-11T08:13:35;41.15;;;20.23;;
42168;SDS011;27838;43.858;25.974;2023-02-11T08:16:03;39.63;;;19.13;;
42168;SDS011;27838;43.858;25.974;2023-02-11T08:18:31;39.05;;;19.27;;
42168;SDS011;27838;43.858;25.974;2023-02-11T08:21:08;42.85;;;18.48;;
42168;SDS011;27838;43.858;25.974;2023-02-11T08:23:35;40.78;;;19.92;;
42168;SDS011;27838;43.858;25.974;2023-02-11T08:26:04;42.58;;;19.58;;
42168;SDS011;27838;43.858;25.974;2023-02-11T08:28:39;38.67;;;20.42;;
42168;SDS011;27838;43.858;25.974;2023-02-11T08:31:11;35.67;;;19.20;;
42168;SDS011;27838;43.858;25.974;2023-02-11T08:33:40;39.17;;;21.20;;
42168;SDS011;27838;43.858;25.974;2023-02-11T08:36:07;40.03;;;18.85;;
42168;SDS011;27838;43.858;25.974;2023-02-11T08:38:55;46.97;;;19.35;;
42168;SDS011;27838;43.858;25.974;2023-02-11T08:41:23;39.70;;;17.70;;
42168;SDS011;27838;43.858;25.974;2023-02-11T08:43:50;36.35;;;19.70;;
42168;SDS011;27838;43.858;25.974;2023-02-11T08:46:17;41.63;;;20.63;;
42168;SDS011;27838;43.858;25.974;2023-02-11T08:48:45;42.58;;;21.50;;
42168;SDS011;27838;43.858;25.974;2023-02-11T08:51:13;36.45;;;20.98;;
42168;SDS011;27838;43.858;25.974;2023-02-11T08:53:42;37.38;;;20.50;;
42168;SDS011;27838;43.858;25.974;2023-02-11T08:56:09;41.70;;;18.63;;
42168;SDS011;27838;43.858;25.974;2023-02-11T08:58:37;40.25;;;19.05;;
42168;SDS011;27838;43.858;25.974;2023-02-11T09:01:11;36.67;;;17.70;;
42168;SDS011;27838;43.858;25.974;2023-02-11T09:03:39;54.85;;;18.73;;
42168;SDS011;27838;43.858;25.974;2023-02-11T09:06:07;39.58;;;19.70;;
42168;SDS011;27838;43.858;25.974;2023-02-11T09:08:35;33.00;;;18.23;;
42168;SDS011;27838;43.858;25.974;2023-02-11T09:11:03;39.55;;;18.40;;
42168;SDS011;27838;43.858;25.974;2023-02-11T09:13:31;33.83;;;18.60;;
42168;SDS011;27838;43.858;25.974;2023-02-11T09:15:59;31.05;;;17.98;;
42168;SDS011;27838;43.858;25.974;2023-02-11T09:18:26;39.25;;;18.63;;
42168;SDS011;27838;43.858;25.974;2023-02-11T09:21:00;36.40;;;19.77;;
42168;SDS011;27838;43.858;25.974;2023-02-11T09:23:30;39.20;;;19.70;;
42168;SDS011;27838;43.858;25.974;2023-02-11T09:25:59;37.92;;;19.17;;
42168;SDS011;27838;43.858;25.974;2023-02-11T09:28:35;40.55;;;20.90;;
42168;SDS011;27838;43.858;25.974;2023-02-11T09:31:05;50.88;;;22.30;;
42168;SDS011;27838;43.858;25.974;2023-02-11T09:36:04;37.13;;;20.83;;
42168;SDS011;27838;43.858;25.974;2023-02-11T09:38:31;51.95;;;22.33;;
42168;SDS011;27838;43.858;25.974;2023-02-11T09:40:58;38.95;;;20.92;;
42168;SDS011;27838;43.858;25.974;2023-02-11T09:43:30;41.30;;;22.00;;
42168;SDS011;27838;43.858;25.974;2023-02-11T09:46:03;49.08;;;21.15;;
42168;SDS011;27838;43.858;25.974;2023-02-11T09:48:33;39.38;;;19.60;;
42168;SDS011;27838;43.858;25.974;2023-02-11T09:51:05;42.08;;;21.25;;
42168;SDS011;27838;43.858;25.974;2023-02-11T09:53:44;36.13;;;20.92;;
42168;SDS011;27838;43.858;25.974;2023-02-11T09:56:12;36.92;;;21.50;;
42168;SDS011;27838;43.858;25.974;2023-02-11T09:58:40;44.85;;;21.17;;
42168;SDS011;27838;43.858;25.974;2023-02-11T10:10:21;34.85;;;19.77;;
42168;SDS011;27838;43.858;25.974;2023-02-11T10:19:07;31.35;;;18.75;;
42168;SDS011;27838;43.858;25.974;2023-02-11T10:21:47;38.80;;;19.90;;
42168;SDS011;27838;43.858;25.974;2023-02-11T10:24:29;37.22;;;19.98;;
42168;SDS011;27838;43.858;25.974;2023-02-11T10:26:56;60.83;;;19.95;;
42168;SDS011;27838;43.858;25.974;2023-02-11T10:32:48;35.92;;;18.50;;
42168;SDS011;27838;43.858;25.974;2023-02-11T10:35:15;35.53;;;19.40;;
42168;SDS011;27838;43.858;25.974;2023-02-11T10:37:45;46.90;;;18.85;;
42168;SDS011;27838;43.858;25.974;2023-02-11T10:42:42;41.97;;;18.80;;
42168;SDS011;27838;43.858;25.974;2023-02-11T10:45:56;43.92;;;19.10;;
42168;SDS011;27838;43.858;25.974;2023-02-11T10:48:36;32.60;;;17.70;;
42168;SDS011;27838;43.858;25.974;2023-02-11T10:53:36;39.80;;;18.70;;
42168;SDS011;27838;43.858;25.974;2023-02-11T10:56:02;49.33;;;19.33;;
42168;SDS011;27838;43.858;25.974;2023-02-11T10:58:33;37.17;;;18.70;;
42168;SDS011;27838;43.858;25.974;2023-02-11T11:01:05;39.88;;;19.42;;
42168;SDS011;27838;43.858;25.974;2023-02-11T11:03:33;35.92;;;19.02;;
42168;SDS011;27838;43.858;25.974;2023-02-11T11:08:48;36.53;;;18.73;;
42168;SDS011;27838;43.858;25.974;2023-02-11T11:11:17;42.92;;;18.73;;
42168;SDS011;27838;43.858;25.974;2023-02-11T11:18:50;31.77;;;17.35;;
42168;SDS011;27838;43.858;25.974;2023-02-11T11:21:22;35.35;;;18.23;;
42168;SDS011;27838;43.858;25.974;2023-02-11T11:23:58;36.85;;;18.48;;
42168;SDS011;27838;43.858;25.974;2023-02-11T11:26:44;32.17;;;18.15;;
42168;SDS011;27838;43.858;25.974;2023-02-11T11:32:01;25.77;;;16.13;;
42168;SDS011;27838;43.858;25.974;2023-02-11T11:36:59;30.42;;;15.55;;
42168;SDS011;27838;43.858;25.974;2023-02-11T11:39:35;36.92;;;16.92;;
42168;SDS011;27838;43.858;25.974;2023-02-11T11:42:03;29.30;;;15.95;;
42168;SDS011;27838;43.858;25.974;2023-02-11T11:44:45;31.48;;;17.33;;
42168;SDS011;27838;43.858;25.974;2023-02-11T11:48:13;27.15;;;16.23;;
42168;SDS011;27838;43.858;25.974;2023-02-11T11:51:01;28.02;;;15.10;;
42168;SDS011;27838;43.858;25.974;2023-02-11T11:56:28;29.98;;;16.25;;
42168;SDS011;27838;43.858;25.974;2023-02-11T11:58:59;29.50;;;14.57;;
42168;SDS011;27838;43.858;25.974;2023-02-11T12:07:06;26.02;;;15.05;;
42168;SDS011;27838;43.858;25.974;2023-02-11T12:15:17;27.40;;;14.57;;
42168;SDS011;27838;43.858;25.974;2023-02-11T12:21:08;30.85;;;14.35;;
42168;SDS011;27838;43.858;25.974;2023-02-11T12:26:42;25.80;;;14.90;;
42168;SDS011;27838;43.858;25.974;2023-02-11T12:29:28;37.03;;;15.02;;
42168;SDS011;27838;43.858;25.974;2023-02-11T12:32:09;24.33;;;14.38;;
42168;SDS011;27838;43.858;25.974;2023-02-11T12:35:18;27.45;;;14.60;;
42168;SDS011;27838;43.858;25.974;2023-02-11T12:49:02;28.17;;;13.60;;
42168;SDS011;27838;43.858;25.974;2023-02-11T12:52:04;34.08;;;13.75;;
42168;SDS011;27838;43.858;25.974;2023-02-11T12:54:43;28.23;;;14.90;;
42168;SDS011;27838;43.858;25.974;2023-02-11T12:57:26;23.33;;;13.38;;
42168;SDS011;27838;43.858;25.974;2023-02-11T13:02:52;25.42;;;13.63;;
42168;SDS011;27838;43.858;25.974;2023-02-11T13:08:14;23.10;;;12.50;;
42168;SDS011;27838;43.858;25.974;2023-02-11T13:10:46;24.33;;;13.23;;
42168;SDS011;27838;43.858;25.974;2023-02-11T13:13:22;22.75;;;13.23;;
42168;SDS011;27838;43.858;25.974;2023-02-11T13:16:05;21.65;;;13.80;;
42168;SDS011;27838;43.858;25.974;2023-02-11T13:33:01;24.80;;;12.45;;
42168;SDS011;27838;43.858;25.974;2023-02-11T13:35:36;21.83;;;14.13;;
42168;SDS011;27838;43.858;25.974;2023-02-11T13:38:24;19.77;;;12.07;;
42168;SDS011;27838;43.858;25.974;2023-02-11T13:43:38;20.88;;;12.05;;
42168;SDS011;27838;43.858;25.974;2023-02-11T13:46:14;20.13;;;12.27;;
42168;SDS011;27838;43.858;25.974;2023-02-11T13:48:45;19.98;;;12.35;;
42168;SDS011;27838;43.858;25.974;2023-02-11T13:51:17;24.27;;;12.25;;
42168;SDS011;27838;43.858;25.974;2023-02-11T13:53:58;24.23;;;13.98;;
42168;SDS011;27838;43.858;25.974;2023-02-11T14:04:33;26.20;;;12.68;;
42168;SDS011;27838;43.858;25.974;2023-02-11T14:07:32;21.13;;;11.80;;
42168;SDS011;27838;43.858;25.974;2023-02-11T14:16:01;20.85;;;12.48;;
42168;SDS011;27838;43.858;25.974;2023-02-11T14:18:57;36.75;;;13.48;;
42168;SDS011;27838;43.858;25.974;2023-02-11T14:29:04;26.55;;;12.43;;
42168;SDS011;27838;43.858;25.974;2023-02-11T14:40:56;20.83;;;11.13;;
42168;SDS011;27838;43.858;25.974;2023-02-11T14:43:30;32.40;;;12.73;;
42168;SDS011;27838;43.858;25.974;2023-02-11T14:46:05;26.88;;;12.10;;
42168;SDS011;27838;43.858;25.974;2023-02-11T14:48:33;20.83;;;12.50;;
42168;SDS011;27838;43.858;25.974;2023-02-11T14:51:06;21.67;;;12.70;;
42168;SDS011;27838;43.858;25.974;2023-02-11T14:53:35;28.23;;;14.82;;
42168;SDS011;27838;43.858;25.974;2023-02-11T14:56:18;28.23;;;13.73;;
42168;SDS011;27838;43.858;25.974;2023-02-11T14:58:50;28.77;;;13.90;;
42168;SDS011;27838;43.858;25.974;2023-02-11T15:01:28;20.15;;;11.80;;
42168;SDS011;27838;43.858;25.974;2023-02-11T15:03:58;27.20;;;12.15;;
42168;SDS011;27838;43.858;25.974;2023-02-11T15:06:27;24.27;;;13.15;;
42168;SDS011;27838;43.858;25.974;2023-02-11T15:11:30;24.85;;;12.70;;
42168;SDS011;27838;43.858;25.974;2023-02-11T15:14:08;20.92;;;11.88;;
42168;SDS011;27838;43.858;25.974;2023-02-11T15:16:39;22.92;;;13.18;;
42168;SDS011;27838;43.858;25.974;2023-02-11T15:19:28;26.75;;;12.95;;
42168;SDS011;27838;43.858;25.974;2023-02-11T15:21:55;24.40;;;12.43;;
42168;SDS011;27838;43.858;25.974;2023-02-11T15:26:57;25.67;;;12.50;;
42168;SDS011;27838;43.858;25.974;2023-02-11T15:29:25;26.35;;;12.90;;
42168;SDS011;27838;43.858;25.974;2023-02-11T15:35:00;26.15;;;13.13;;
42168;SDS011;27838;43.858;25.974;2023-02-11T15:37:28;26.23;;;13.50;;
42168;SDS011;27838;43.858;25.974;2023-02-11T15:39:54;31.70;;;13.32;;
42168;SDS011;27838;43.858;25.974;2023-02-11T15:42:36;25.55;;;13.40;;
42168;SDS011;27838;43.858;25.974;2023-02-11T15:45:22;28.45;;;13.35;;
42168;SDS011;27838;43.858;25.974;2023-02-11T15:48:11;31.27;;;13.45;;
42168;SDS011;27838;43.858;25.974;2023-02-11T15:50:49;31.42;;;15.27;;
42168;SDS011;27838;43.858;25.974;2023-02-11T15:55:51;24.70;;;13.23;;
42168;SDS011;27838;43.858;25.974;2023-02-11T15:58:38;24.38;;;12.68;;
42168;SDS011;27838;43.858;25.974;2023-02-11T16:01:07;24.30;;;13.52;;
42168;SDS011;27838;43.858;25.974;2023-02-11T16:03:35;36.75;;;14.30;;
42168;SDS011;27838;43.858;25.974;2023-02-11T16:09:21;26.65;;;13.48;;
42168;SDS011;27838;43.858;25.974;2023-02-11T16:11:57;24.15;;;13.52;;
42168;SDS011;27838;43.858;25.974;2023-02-11T16:19:28;27.98;;;14.77;;
42168;SDS011;27838;43.858;25.974;2023-02-11T16:21:57;30.45;;;15.45;;
42168;SDS011;27838;43.858;25.974;2023-02-11T16:24:27;26.13;;;15.43;;
42168;SDS011;27838;43.858;25.974;2023-02-11T16:26:58;30.35;;;15.43;;
42168;SDS011;27838;43.858;25.974;2023-02-11T16:29:27;29.90;;;16.30;;
42168;SDS011;27838;43.858;25.974;2023-02-11T16:32:08;29.17;;;16.15;;
42168;SDS011;27838;43.858;25.974;2023-02-11T16:34:41;27.27;;;15.98;;
42168;SDS011;27838;43.858;25.974;2023-02-11T16:37:08;25.23;;;15.05;;
42168;SDS011;27838;43.858;25.974;2023-02-11T16:39:34;29.80;;;16.55;;
42168;SDS011;27838;43.858;25.974;2023-02-11T16:42:01;32.20;;;17.02;;
42168;SDS011;27838;43.858;25.974;2023-02-11T16:44:29;32.08;;;17.27;;
42168;SDS011;27838;43.858;25.974;2023-02-11T16:46:57;33.63;;;17.23;;
42168;SDS011;27838;43.858;25.974;2023-02-11T16:49:32;31.00;;;17.67;;
42168;SDS011;27838;43.858;25.974;2023-02-11T16:52:04;24.92;;;14.68;;
42168;SDS011;27838;43.858;25.974;2023-02-11T16:54:33;32.08;;;15.88;;
42168;SDS011;27838;43.858;25.974;2023-02-11T16:57:00;30.45;;;16.52;;
42168;SDS011;27838;43.858;25.974;2023-02-11T16:59:31;27.48;;;16.40;;
42168;SDS011;27838;43.858;25.974;2023-02-11T17:01:57;32.25;;;15.88;;
42168;SDS011;27838;43.858;25.974;2023-02-11T17:04:26;30.50;;;16.92;;
42168;SDS011;27838;43.858;25.974;2023-02-11T17:06:55;30.23;;;16.95;;
42168;SDS011;27838;43.858;25.974;2023-02-11T17:09:23;33.25;;;17.25;;
42168;SDS011;27838;43.858;25.974;2023-02-11T17:11:51;30.48;;;18.17;;
42168;SDS011;27838;43.858;25.974;2023-02-11T17:14:18;31.50;;;17.15;;
42168;SDS011;27838;43.858;25.974;2023-02-11T17:16:45;33.03;;;17.60;;
42168;SDS011;27838;43.858;25.974;2023-02-11T17:19:13;39.00;;;18.50;;
42168;SDS011;27838;43.858;25.974;2023-02-11T17:21:43;34.17;;;17.52;;
42168;SDS011;27838;43.858;25.974;2023-02-11T17:24:11;35.78;;;17.70;;
42168;SDS011;27838;43.858;25.974;2023-02-11T17:26:39;35.30;;;19.00;;
42168;SDS011;27838;43.858;25.974;2023-02-11T17:29:07;38.55;;;18.70;;
42168;SDS011;27838;43.858;25.974;2023-02-11T17:31:37;31.42;;;18.83;;